Forest fire From: 19-07-2018 20:00 Until: 20-07-2018 16:00 warning for: Forest fire Level: Yellow info button
suomi:
Metsäpalovaroitus on voimassa.

svenska:
Varning för skogsbrand gäller.

english:
A forest fire warning is in force. 

Extreme high temperature From: 19-07-2018 20:00 Until: 23:00 warning for: Extreme high temperature Level: Yellow info button
suomi:
Hellevaroitus: Lähivuorokauden aikana on odotettavissa tukalaa hellettä.

svenska:
Varning för värmebölja: Under det närmaste dygnet är den svåra hettan att vänta.

english:
Heat wave warning: Warm weather is expected during the coming 24 hours. 


Thunder radar more information blitzortung!


Löydät sääaseman tiedot myös:

European Weather Network

Finland Weather Exchange

Weather Underground

AWEKAS



Weather Underground säähistoriasivu

Päivittäin yhteenveto Tou 4, 2017 Yksiköt:  Englantilaiset    Metriset   Molemmat
« Edellinen Päivä
Seuraava Päivä »
Päivittäin Viikoittain Kuukausittain Vuosittain Mukautettu
  Korkea: Matala: Keskiarvo:
Lämpötila: TemperatureC °F -1.7 °F 6.4 °F
Kastepiste: DewpointC °F -3.3 °F -1.3 °F
Kosteus: Humidity % 36 % 60 %
Tuulen nopeus: WindSpeedKMH mph 0.0 mph 2.7 mph
Tuulenpuuska: WindSpeedGustKMH mph - -
Tuuli:- - WSW
Ilmanpaine: PressurehPa in 1023.6 in -
Sade: 0.0 in    
Historical Graphs
 
 
Taulukkotiedot Tou 4, 2017
Aika Lämpötila Kastepiste Ilmanpaine Tuuli Tuulen nopeus Tuulenpuuska Kosteus Sademäärä (tunneittain)
TemperatureC °F DewpointC °F PressurehPa in Calm     Humidity % HourlyPrecipMM in
00:00 -1.7 °F -3.3 °F 1037.5 in Calm     89 % 0.0 in
00:15 -1.3 °F -2.7 °F 1037.5 in Calm     90 % 0.0 in
00:30 -0.7 °F -2.1 °F 1037.1 in Calm     90 % 0.0 in
00:45 -0.1 °F -1.7 °F 1037.5 in Calm     89 % 0.0 in
01:00 0.4 °F -1.5 °F 1037.5 in Calm     87 % 0.0 in
01:15 1.0 °F -1.1 °F 1037.5 in Calm     86 % 0.0 in
01:30 1.4 °F -0.8 °F 1037.1 in Calm     85 % 0.0 in
01:45 2.4 °F -0.2 °F 1037.5 in Calm     83 % 0.0 in
02:00 3.6 °F -0.2 °F 1037.1 in Calm     76 % 0.0 in
02:15 4.7 °F -0.3 °F 1036.8 in Calm     70 % 0.0 in
02:30 5.6 °F -0.7 °F 1036.8 in Calm   1.6 mph 64 % 0.0 in
02:45 6.0 °F -0.7 °F 1036.8 in Calm   1.6 mph 62 % 0.0 in
03:00 6.4 °F -1.0 °F 1036.8 in Calm   3.2 mph 59 % 0.0 in
03:15 6.9 °F -1.0 °F 1036.5 in Calm   3.2 mph 57 % 0.0 in
03:30 7.2 °F -0.3 °F 1036.5 in West 1.6 mph 6.4 mph 59 % 0.0 in
03:45 7.4 °F -1.8 °F 1036.5 in NW 1.6 mph 11.3 mph 52 % 0.0 in
04:00 7.8 °F -1.7 °F 1036.5 in NW 1.6 mph 11.3 mph 51 % 0.0 in
04:15 7.9 °F -1.1 °F 1036.1 in NW 1.6 mph 6.4 mph 53 % 0.0 in
04:30 8.3 °F -1.8 °F 1036.1 in NW 3.2 mph 12.9 mph 49 % 0.0 in
04:45 8.8 °F -1.3 °F 1035.8 in NW 1.6 mph 4.8 mph 49 % 0.0 in
05:00 8.8 °F -1.3 °F 1035.8 in NNW 1.6 mph 9.7 mph 49 % 0.0 in
05:15 8.8 °F -1.9 °F 1035.4 in NW 4.8 mph 11.3 mph 47 % 0.0 in
05:30 9.2 °F -2.5 °F 1035.4 in NW 3.2 mph 11.3 mph 44 % 0.0 in
05:45 9.3 °F -1.4 °F 1035.1 in NW 3.2 mph 8.0 mph 47 % 0.0 in
06:00 9.7 °F -1.1 °F 1034.8 in North 3.2 mph 9.7 mph 47 % 0.0 in
06:15 10.0 °F -0.2 °F 1034.8 in NE 1.6 mph 4.8 mph 49 % 0.0 in
06:30 10.6 °F -2.1 °F 1034.8 in WNW 4.8 mph 12.9 mph 41 % 0.0 in
06:45 10.6 °F -1.5 °F 1034.4 in WNW 3.2 mph 12.9 mph 43 % 0.0 in
07:00 11.0 °F -2.1 °F 1034.4 in NW 3.2 mph 11.3 mph 40 % 0.0 in
07:15 10.9 °F -1.5 °F 1034.1 in NW 4.8 mph 14.5 mph 42 % 0.0 in
07:30 11.4 °F -1.4 °F 1033.7 in SSW 3.2 mph 11.3 mph 41 % 0.0 in
07:45 11.7 °F -1.8 °F 1033.7 in WNW 3.2 mph 14.5 mph 39 % 0.0 in
08:00 12.2 °F -1.8 °F 1033.4 in West 4.8 mph 17.7 mph 38 % 0.0 in
08:15 11.9 °F -1.3 °F 1033.1 in NNW 4.8 mph 12.9 mph 40 % 0.0 in
08:30 12.1 °F -1.5 °F 1033.1 in WSW 3.2 mph 8.0 mph 39 % 0.0 in
08:45 12.6 °F -1.0 °F 1032.7 in NW 4.8 mph 14.5 mph 39 % 0.0 in
09:00 12.2 °F -2.1 °F 1032.7 in WNW 3.2 mph 12.9 mph 37 % 0.0 in
09:15 12.2 °F -2.4 °F 1032.4 in West 4.8 mph 14.5 mph 36 % 0.0 in
09:30 12.8 °F -1.9 °F 1032.1 in SW 3.2 mph 9.7 mph 36 % 0.0 in
09:45 12.4 °F -1.1 °F 1032.1 in West 4.8 mph 14.5 mph 39 % 0.0 in
10:00 12.3 °F -0.6 °F 1032.1 in West 3.2 mph 11.3 mph 41 % 0.0 in
10:15 12.1 °F -1.4 °F 1031.7 in NW 4.8 mph 14.5 mph 39 % 0.0 in
10:30 12.1 °F -2.2 °F 1031.4 in SW 3.2 mph 14.5 mph 37 % 0.0 in
10:45 12.2 °F -1.8 °F 1031.4 in WNW 3.2 mph 14.5 mph 38 % 0.0 in
11:00 11.9 °F -1.6 °F 1031.4 in WNW 3.2 mph 11.3 mph 39 % 0.0 in
11:15 11.6 °F -1.6 °F 1031.0 in WNW 4.8 mph 12.9 mph 40 % 0.0 in
11:30 11.2 °F -1.9 °F 1031.0 in WNW 4.8 mph 12.9 mph 40 % 0.0 in
11:45 11.2 °F -1.6 °F 1030.7 in WNW 3.2 mph 11.3 mph 41 % 0.0 in
12:00 11.0 °F -1.8 °F 1030.7 in WSW 4.8 mph 16.1 mph 41 % 0.0 in
12:15 10.7 °F -2.1 °F 1030.4 in SW 3.2 mph 9.7 mph 41 % 0.0 in
12:30 10.3 °F -2.0 °F 1030.4 in WSW 3.2 mph 9.7 mph 42 % 0.0 in
12:45 9.8 °F -2.5 °F 1030.0 in SSW 1.6 mph 8.0 mph 42 % 0.0 in
13:00 9.6 °F -2.4 °F 1030.0 in SW 1.6 mph 6.4 mph 43 % 0.0 in
13:15 9.3 °F -2.1 °F 1030.0 in SW 1.6 mph 11.3 mph 45 % 0.0 in
13:30 8.9 °F -1.8 °F 1029.7 in SSW 1.6 mph 8.0 mph 47 % 0.0 in
13:45 8.6 °F -1.5 °F 1029.7 in SSW 1.6 mph 8.0 mph 49 % 0.0 in
14:00 8.3 °F -1.5 °F 1029.7 in SW 1.6 mph 8.0 mph 50 % 0.0 in
14:15 7.8 °F -1.4 °F 1029.7 in SSW 3.2 mph 9.7 mph 52 % 0.0 in
14:30 7.2 °F -1.5 °F 1029.3 in SW 3.2 mph 8.0 mph 54 % 0.0 in
14:45 6.7 °F -1.7 °F 1029.3 in SSW 3.2 mph 11.3 mph 55 % 0.0 in
15:00 6.2 °F -1.7 °F 1029.3 in SW 1.6 mph 6.4 mph 57 % 0.0 in
15:15 5.8 °F -1.6 °F 1029.3 in SW 3.2 mph 9.7 mph 59 % 0.0 in
15:30 5.3 °F -1.6 °F 1029.0 in SSW 1.6 mph 9.7 mph 61 % 0.0 in
15:45 4.9 °F -1.5 °F 1029.0 in SSW 3.2 mph 9.7 mph 63 % 0.0 in
16:00 4.7 °F -1.6 °F 1028.7 in SSW 3.2 mph 9.7 mph 64 % 0.0 in
16:15 4.3 °F -1.7 °F 1028.7 in SSW 3.2 mph 9.7 mph 65 % 0.0 in
16:30 4.0 °F -1.8 °F 1028.7 in SW 3.2 mph 11.3 mph 66 % 0.0 in
16:45 3.7 °F -1.8 °F 1028.3 in SSW 4.8 mph 11.3 mph 67 % 0.0 in
17:00 3.5 °F -1.9 °F 1028.3 in SSW 6.4 mph 12.9 mph 68 % 0.0 in
17:15 3.3 °F -1.8 °F 1028.3 in SW 4.8 mph 9.7 mph 69 % 0.0 in
17:30 3.3 °F -1.9 °F 1028.0 in SSW 6.4 mph 12.9 mph 69 % 0.0 in
17:45 3.3 °F -1.9 °F 1028.0 in SSW 4.8 mph 11.3 mph 69 % 0.0 in
18:00 3.3 °F -1.9 °F 1027.7 in SSW 4.8 mph 14.5 mph 69 % 0.0 in
18:15 3.2 °F -2.0 °F 1027.7 in Calm   3.2 mph 69 % 0.0 in
18:30 3.2 °F -2.1 °F 1027.7 in Calm   6.4 mph 68 % 0.0 in
18:45 3.4 °F -2.1 °F 1027.3 in SSW 3.2 mph 9.7 mph 67 % 0.0 in
19:00 3.8 °F -1.6 °F 1027.0 in SW 6.4 mph 19.3 mph 68 % 0.0 in
19:15 3.7 °F -1.3 °F 1026.6 in SW 4.8 mph 11.3 mph 70 % 0.0 in
19:30 3.4 °F -1.1 °F 1026.6 in SW 4.8 mph 12.9 mph 72 % 0.0 in
19:45 3.2 °F -0.8 °F 1026.6 in SW 4.8 mph 14.5 mph 75 % 0.0 in
20:00 3.0 °F -0.8 °F 1026.3 in SSW 3.2 mph 11.3 mph 76 % 0.0 in
20:15 2.8 °F -0.7 °F 1026.3 in SW 1.6 mph 9.7 mph 78 % 0.0 in
20:30 2.6 °F -0.7 °F 1026.0 in SW 1.6 mph 9.7 mph 79 % 0.0 in
20:45 2.4 °F -0.5 °F 1026.0 in SW 1.6 mph 9.7 mph 81 % 0.0 in
21:00 2.2 °F -0.5 °F 1025.6 in SSW 1.6 mph 6.4 mph 82 % 0.0 in
21:15 2.1 °F -0.5 °F 1025.6 in SW 1.6 mph 6.4 mph 83 % 0.0 in
21:30 1.9 °F -0.5 °F 1025.3 in Calm   3.2 mph 84 % 0.0 in
21:45 1.9 °F -0.4 °F 1024.9 in SSW 1.6 mph 8.0 mph 85 % 0.0 in
22:00 1.9 °F -0.2 °F 1024.9 in SSW 3.2 mph 8.0 mph 86 % 0.0 in
22:15 1.9 °F -0.2 °F 1024.6 in SSW 4.8 mph 8.0 mph 86 % 0.0 in
22:30 1.8 °F -0.1 °F 1024.3 in SSW 4.8 mph 9.7 mph 87 % 0.0 in
22:45 1.8 °F -0.1 °F 1024.3 in SSW 4.8 mph 9.7 mph 87 % 0.0 in
23:00 1.9 °F 0.2 °F 1023.9 in SW 3.2 mph 8.0 mph 88 % 0.0 in
23:15 2.1 °F 0.3 °F 1023.6 in SW 3.2 mph 8.0 mph 88 % 0.0 in
23:30 2.3 °F 0.4 °F 1023.6 in SW 4.8 mph 8.0 mph 87 % 0.0 in
23:45 2.7 °F 0.8 °F 1023.6 in SSW 1.6 mph 4.8 mph 87 % 0.0 in
Esan sääasema
Terveisin Weather Underground - 2.75 mb

Alkuperäinen skripti  Jim McMurry - jmcmurry@mwt.net Sovitettu myös templatelle  Wim van der Kuil - Leuven-Template.eu

Laitteet joita käytämme:

Sääasema
Davis VP2

Sääasemaohjelma
Cumulus

Sääaseman tietokone
Asus EeePC

Palveluntarjoaja
Suncomet

Davis VP2

Cumulus

Asus EeePC

Suncomet